Time;durP1;ratioP1;P1;durP2;ratioP2;P2;SDS_P1;SDS_P2;PMS_P1;PMS_P2;Temp;Humidity;BMP_temperature;BMP_pressure;BME280_temperature;BME280_humidity;BME280_pressure;Samples;Min_cycle;Max_cycle;Signal;HPM_P1;HPM_P2
2023/10/01 00:02:42;;;;;;;2.53;1.50;;;23.30;60.20;;;;;;6392203;27;20580;-41
2023/10/01 00:05:45;;;;;;;2.13;1.40;;;23.10;60.00;;;;;;6391364;27;20091;-40
2023/10/01 00:08:47;;;;;;;1.55;1.00;;;23.40;60.20;;;;;;6392175;27;20054;-41
2023/10/01 00:11:48;;;;;;;2.28;1.35;;;23.20;60.30;;;;;;6392427;27;20050;-40
2023/10/01 00:14:52;;;;;;;2.42;1.42;;;23.20;60.30;;;;;;6391841;27;20092;-41
2023/10/01 00:17:55;;;;;;;2.00;1.45;;;23.10;60.10;;;;;;6392514;27;20448;-40
2023/10/01 00:20:57;;;;;;;2.00;1.20;;;22.90;60.10;;;;;;6392046;27;20087;-41
2023/10/01 00:23:59;;;;;;;1.95;1.20;;;23.30;60.30;;;;;;6391588;27;20053;-41
2023/10/01 00:27:01;;;;;;;2.20;1.30;;;23.10;60.30;;;;;;6372938;27;20047;-43
2023/10/01 00:30:04;;;;;;;1.80;1.13;;;23.20;60.30;;;;;;6391913;27;20054;-41
2023/10/01 00:33:07;;;;;;;2.28;1.50;;;23.30;60.30;;;;;;6391682;27;20057;-40
2023/10/01 00:36:11;;;;;;;1.80;1.30;;;23.20;60.20;;;;;;6373560;27;20775;-42
2023/10/01 00:39:12;;;;;;;1.92;1.30;;;23.20;60.40;;;;;;6391615;27;20057;-42
2023/10/01 00:42:14;;;;;;;1.90;1.05;;;23.00;60.30;;;;;;6391428;27;20511;-40
2023/10/01 00:45:15;;;;;;;2.45;1.10;;;23.10;60.40;;;;;;6391072;27;20129;-40
2023/10/01 00:48:18;;;;;;;1.83;1.17;;;22.90;60.20;;;;;;6391531;27;20045;-41
2023/10/01 00:51:20;;;;;;;2.08;1.30;;;23.00;60.10;;;;;;6385343;27;20035;-40
2023/10/01 00:54:22;;;;;;;1.70;1.25;;;23.00;60.30;;;;;;6365677;28;20047;-41
2023/10/01 00:57:23;;;;;;;1.60;1.17;;;22.90;60.30;;;;;;6365483;28;20050;-41
2023/10/01 01:00:26;;;;;;;1.58;1.00;;;22.90;60.30;;;;;;6365317;28;20528;-43
2023/10/01 01:03:34;;;;;;;1.50;1.05;;;23.30;60.50;;;;;;6365377;27;20078;-40
2023/10/01 01:06:37;;;;;;;2.13;1.35;;;23.20;60.50;;;;;;6365417;28;20043;-45
2023/10/01 01:09:38;;;;;;;2.88;1.30;;;22.90;60.40;;;;;;6365543;28;20089;-58
2023/10/01 01:13:03;;;;;;;1.60;0.90;;;22.90;60.40;;;;;;6366329;27;20584;-59
2023/10/01 01:16:06;;;;;;;2.15;1.48;;;22.70;60.40;;;;;;6237602;28;20054;-47
2023/10/01 01:19:12;;;;;;;2.08;1.23;;;22.70;60.10;;;;;;6239249;28;20091;-50
2023/10/01 01:22:28;;;;;;;1.55;1.10;;;22.90;60.30;;;;;;6238629;28;20053;-45
2023/10/01 01:25:32;;;;;;;2.22;1.20;;;23.00;60.20;;;;;;6239707;28;20128;-51
2023/10/01 01:28:35;;;;;;;1.90;1.13;;;22.90;60.30;;;;;;6239343;28;20056;-49
2023/10/01 01:31:45;;;;;;;1.63;1.15;;;23.00;60.40;;;;;;6239274;28;20387;-46
2023/10/01 01:34:47;;;;;;;2.35;1.77;;;23.00;60.40;;;;;;6262620;28;20490;-50
2023/10/01 01:37:54;;;;;;;1.92;1.23;;;22.90;60.30;;;;;;6263987;28;20056;-48
2023/10/01 01:40:56;;;;;;;2.15;1.35;;;23.00;60.20;;;;;;6264123;28;20044;-47
2023/10/01 01:43:58;;;;;;;2.05;1.40;;;22.90;60.50;;;;;;6263925;28;20045;-49
2023/10/01 01:47:00;;;;;;;2.00;1.20;;;23.20;60.50;;;;;;6263028;28;20041;-46
2023/10/01 01:50:17;;;;;;;1.80;1.20;;;22.80;60.40;;;;;;6263710;28;20049;-46
2023/10/01 01:53:18;;;;;;;1.35;1.00;;;22.80;60.20;;;;;;6263687;28;20107;-48
2023/10/01 01:56:21;;;;;;;2.33;1.20;;;22.80;60.30;;;;;;6261461;28;20064;-50
2023/10/01 01:59:25;;;;;;;2.25;1.08;;;22.90;60.30;;;;;;6265873;28;20407;-46
2023/10/01 02:02:26;;;;;;;2.30;1.48;;;23.40;60.60;;;;;;6273676;28;20615;-49
2023/10/01 02:05:28;;;;;;;2.40;1.70;;;22.90;60.40;;;;;;6267211;28;20056;-45
2023/10/01 02:08:35;;;;;;;1.80;1.27;;;22.80;60.30;;;;;;6263094;28;20045;-49
2023/10/01 02:11:38;;;;;;;1.80;1.40;;;22.80;60.20;;;;;;6263067;28;20493;-49
2023/10/01 02:14:47;;;;;;;2.03;1.25;;;22.70;60.20;;;;;;6237130;28;20683;-51
2023/10/01 02:17:49;;;;;;;2.35;1.30;;;22.80;60.20;;;;;;6238503;28;20053;-51
2023/10/01 02:20:52;;;;;;;2.10;1.30;;;22.70;60.20;;;;;;6235041;28;20254;-46
2023/10/01 02:23:54;;;;;;;1.98;1.33;;;22.90;60.30;;;;;;6233411;28;20041;-46
2023/10/01 02:26:59;;;;;;;1.73;1.17;;;22.90;60.30;;;;;;6233476;28;20049;-45
2023/10/01 02:33:19;;;;;;;2.00;1.33;;;22.70;60.10;;;;;;6233732;28;20042;-44
2023/10/01 02:36:23;;;;;;;1.40;1.20;;;22.80;60.30;;;;;;6234775;28;20435;-46
2023/10/01 02:39:27;;;;;;;1.90;1.40;;;22.30;59.90;;;;;;6234264;28;20053;-47
2023/10/01 02:42:31;;;;;;;2.20;1.27;;;22.70;60.10;;;;;;6234806;28;20045;-46
2023/10/01 02:45:34;;;;;;;1.55;1.05;;;22.70;60.10;;;;;;6216546;28;20075;-46
2023/10/01 02:48:36;;;;;;;1.92;1.10;;;22.70;60.30;;;;;;6235002;28;20680;-46
2023/10/01 02:51:38;;;;;;;2.22;1.20;;;22.60;60.10;;;;;;6234972;28;20558;-46
2023/10/01 02:54:39;;;;;;;1.90;1.40;;;22.30;60.00;;;;;;6234076;28;20515;-47
2023/10/01 02:57:41;;;;;;;;;;;22.40;60.00;;;;;;6235414;28;20049;-47
2023/10/01 03:00:42;;;;;;;1.45;1.20;;;22.80;60.60;;;;;;6234573;28;19925;-46
2023/10/01 03:03:44;;;;;;;1.83;1.20;;;22.70;60.30;;;;;;6234617;28;20061;-48
2023/10/01 03:06:53;;;;;;;1.40;1.20;;;22.60;60.30;;;;;;6234602;28;20064;-45
2023/10/01 03:10:00;;;;;;;1.83;1.08;;;22.60;60.10;;;;;;6234416;28;20050;-48
2023/10/01 03:13:14;;;;;;;1.83;1.15;;;22.70;60.10;;;;;;6234461;28;20614;-46
2023/10/01 03:19:28;;;;;;;;;;;22.70;60.20;;;;;;6235217;28;20353;-45
2023/10/01 03:22:31;;;;;;;1.98;1.10;;;22.80;60.50;;;;;;6234747;28;19952;-47
2023/10/01 03:25:40;;;;;;;1.73;0.90;;;22.70;60.30;;;;;;6234301;28;20422;-45
2023/10/01 03:31:53;;;;;;;2.40;1.10;;;22.40;60.00;;;;;;6234839;28;20545;-44
2023/10/01 03:34:55;;;;;;;1.50;0.98;;;22.40;60.10;;;;;;6236768;28;20435;-45
2023/10/01 03:38:09;;;;;;;1.45;1.10;;;22.60;60.20;;;;;;6219700;28;20505;-45
2023/10/01 03:41:20;;;;;;;1.70;1.10;;;22.50;60.00;;;;;;6239224;28;20085;-46
2023/10/01 03:44:59;;;;;;;1.90;1.20;;;22.50;60.00;;;;;;6240913;28;20498;-46
2023/10/01 03:48:00;;;;;;;2.25;1.58;;;22.30;59.90;;;;;;6239186;28;20046;-47
2023/10/01 03:51:09;;;;;;;1.60;0.90;;;22.50;60.20;;;;;;6239216;28;20063;-43
2023/10/01 03:54:14;;;;;;;2.17;1.52;;;22.50;59.10;;;;;;6240594;28;20072;-48
2023/10/01 03:57:18;;;;;;;1.75;1.05;;;22.20;60.10;;;;;;6240306;28;20046;-45
2023/10/01 04:00:32;;;;;;;2.50;1.20;;;22.30;60.00;;;;;;6240166;28;20053;-45
2023/10/01 04:03:39;;;;;;;1.92;1.15;;;22.40;59.90;;;;;;6240487;28;20042;-49
2023/10/01 04:06:40;;;;;;;1.80;1.10;;;22.50;60.00;;;;;;6240773;28;20140;-43
2023/10/01 04:09:46;;;;;;;;;;;22.40;60.10;;;;;;6240426;28;20050;-43
2023/10/01 04:12:54;;;;;;;2.05;1.30;;;22.60;60.40;;;;;;6240345;28;19932;-45
2023/10/01 04:16:05;;;;;;;2.00;1.27;;;22.50;60.00;;;;;;6222683;28;20050;-46
2023/10/01 04:19:11;;;;;;;1.88;1.10;;;22.60;60.00;;;;;;6238393;28;20063;-48
2023/10/01 04:22:13;;;;;;;1.65;1.02;;;21.60;59.60;;;;;;6239556;28;20523;-46
2023/10/01 04:25:14;;;;;;;2.10;1.25;;;22.50;60.10;;;;;;6239697;28;20045;-46
2023/10/01 04:28:17;;;;;;;1.85;1.25;;;22.40;60.10;;;;;;6240482;28;20044;-50
2023/10/01 04:31:42;;;;;;;1.40;1.13;;;22.50;60.10;;;;;;6239715;28;20073;-50
2023/10/01 04:34:49;;;;;;;1.75;1.10;;;22.20;59.80;;;;;;6212848;28;20605;-49
2023/10/01 04:37:51;;;;;;;1.90;1.02;;;22.40;60.00;;;;;;6239635;28;20458;-45
2023/10/01 04:40:52;;;;;;;1.77;1.17;;;22.30;60.10;;;;;;6240237;28;20179;-49
2023/10/01 04:43:56;;;;;;;1.90;1.20;;;22.90;60.50;;;;;;6239535;28;20470;-49
2023/10/01 04:47:24;;;;;;;1.33;0.90;;;22.50;60.20;;;;;;6239509;28;20080;-48
2023/10/01 04:50:24;;;;;;;1.63;1.02;;;21.90;59.80;;;;;;6224599;28;20053;-50
2023/10/01 04:53:25;;;;;;;1.92;1.13;;;22.40;60.10;;;;;;6239560;28;20474;-49
2023/10/01 04:56:27;;;;;;;1.75;1.10;;;22.20;60.10;;;;;;6239278;28;20123;-49
2023/10/01 04:59:29;;;;;;;2.30;1.10;;;22.10;60.20;;;;;;6239368;28;20617;-47
2023/10/01 05:02:32;;;;;;;;;;;22.50;60.30;;;;;;6239944;28;20507;-47
2023/10/01 05:05:36;;;;;;;1.23;1.08;;;22.60;60.70;;;;;;6239120;28;19947;-48
2023/10/01 05:08:38;;;;;;;1.65;1.15;;;22.40;60.20;;;;;;6222293;28;20058;-46
2023/10/01 05:11:39;;;;;;;1.80;1.13;;;22.30;60.20;;;;;;6239330;28;20419;-48
2023/10/01 05:17:55;;;;;;;2.38;1.08;;;22.30;60.20;;;;;;6239210;28;20096;-44
2023/10/01 05:20:58;;;;;;;1.60;1.10;;;22.30;60.30;;;;;;6237227;28;20403;-45
2023/10/01 05:24:00;;;;;;;2.00;1.33;;;21.90;60.00;;;;;;6239060;28;20049;-47
2023/10/01 05:27:02;;;;;;;;;;;22.30;60.40;;;;;;6239505;28;20104;-50
2023/10/01 05:30:34;;;;;;;1.55;1.20;;;22.60;60.80;;;;;;6238718;28;19925;-51
2023/10/01 05:33:33;;;;;;;1.63;1.13;;;22.30;60.30;;;;;;6221857;28;20042;-46
2023/10/01 05:36:37;;;;;;;1.73;1.10;;;21.80;60.00;;;;;;6236857;28;20045;-46
2023/10/01 05:43:13;;;;;;;2.03;1.35;;;22.10;60.20;;;;;;6223501;28;20041;-51
2023/10/01 05:46:14;;;;;;;1.92;0.93;;;22.00;60.20;;;;;;6239175;28;20045;-45
2023/10/01 05:49:18;;;;;;;1.80;1.35;;;22.30;60.60;;;;;;6238436;28;20427;-44
2023/10/01 05:52:24;;;;;;;1.80;1.17;;;21.90;60.20;;;;;;6238147;28;20136;-48
2023/10/01 05:55:28;;;;;;;2.00;1.20;;;22.10;58.60;;;;;;6238341;28;20048;-51
2023/10/01 05:58:30;;;;;;;2.20;1.42;;;22.20;60.40;;;;;;6237931;28;20084;-48
2023/10/01 06:01:33;;;;;;;1.80;0.90;;;22.10;60.50;;;;;;6237766;28;20053;-46
2023/10/01 06:04:38;;;;;;;2.08;1.30;;;22.30;60.40;;;;;;6237766;28;20053;-46
2023/10/01 06:07:41;;;;;;;1.60;0.95;;;22.30;60.50;;;;;;6238217;28;20469;-49
2023/10/01 06:10:59;;;;;;;1.67;1.05;;;22.10;60.50;;;;;;6237981;28;20049;-44
2023/10/01 06:14:00;;;;;;;1.38;1.05;;;22.20;60.30;;;;;;6237967;28;20057;-43
2023/10/01 06:17:02;;;;;;;;;;;22.30;60.60;;;;;;6238752;28;20041;-49
2023/10/01 06:20:23;;;;;;;1.65;1.10;;;22.40;61.00;;;;;;6238443;28;20401;-46
2023/10/01 06:23:28;;;;;;;2.00;1.20;;;22.20;60.50;;;;;;6237819;28;20485;-46
2023/10/01 06:26:36;;;;;;;1.92;1.17;;;22.10;60.50;;;;;;6237893;28;20068;-48
2023/10/01 06:29:49;;;;;;;1.90;1.17;;;22.20;60.60;;;;;;6220251;28;20100;-45
2023/10/01 06:32:51;;;;;;;1.70;1.10;;;21.70;60.20;;;;;;6237623;28;20523;-46
2023/10/01 06:36:15;;;;;;;2.15;1.23;;;22.10;60.60;;;;;;6237791;28;20068;-49
2023/10/01 06:39:20;;;;;;;2.63;1.50;;;22.10;60.50;;;;;;6238002;28;20053;-50
2023/10/01 06:42:24;;;;;;;2.08;1.33;;;22.10;60.40;;;;;;6238046;28;20057;-48
2023/10/01 06:48:39;;;;;;;1.42;1.02;;;22.10;60.50;;;;;;6237849;28;20045;-47
2023/10/01 06:51:45;;;;;;;2.63;1.38;;;21.90;60.40;;;;;;6237681;28;20491;-49
2023/10/01 06:54:46;;;;;;;1.80;1.08;;;21.80;60.30;;;;;;6238066;28;20462;-48
2023/10/01 06:57:50;;;;;;;;;;;22.10;60.70;;;;;;6237616;28;20045;-50
2023/10/01 07:00:52;;;;;;;1.65;1.17;;;22.40;61.90;;;;;;6237784;28;19925;-45
2023/10/01 07:03:57;;;;;;;1.83;0.95;;;22.60;61.00;;;;;;6237185;28;20054;-50
2023/10/01 07:07:19;;;;;;;1.67;1.35;;;22.10;58.90;;;;;;6234390;28;20059;-47
2023/10/01 07:10:21;;;;;;;2.28;1.35;;;22.30;61.00;;;;;;6236815;28;20057;-50
2023/10/01 07:13:24;;;;;;;1.90;1.10;;;22.60;61.10;;;;;;6235933;28;20095;-50
2023/10/01 07:19:38;;;;;;;1.90;1.10;;;22.20;61.00;;;;;;6240846;28;20053;-47
2023/10/01 07:22:44;;;;;;;1.60;1.10;;;22.10;60.90;;;;;;6241237;28;20136;-50
2023/10/01 07:25:47;;;;;;;1.73;1.00;;;22.10;61.00;;;;;;6241185;28;20527;-45
2023/10/01 07:28:55;;;;;;;2.05;1.20;;;21.90;60.90;;;;;;6241088;28;20045;-48
2023/10/01 07:32:07;;;;;;;2.03;0.98;;;22.20;61.20;;;;;;6240717;28;20049;-44
2023/10/01 07:35:09;;;;;;;2.45;1.42;;;22.00;60.90;;;;;;6240218;28;20423;-50
2023/10/01 07:38:13;;;;;;;2.00;1.33;;;22.10;61.80;;;;;;6240334;28;20056;-49
2023/10/01 07:41:16;;;;;;;1.67;1.20;;;22.10;61.00;;;;;;6240390;28;20404;-48
2023/10/01 07:44:18;;;;;;;2.47;1.33;;;22.20;61.40;;;;;;6240803;28;20045;-47
2023/10/01 07:50:33;;;;;;;1.98;1.15;;;21.80;61.00;;;;;;6240411;28;20822;-49
2023/10/01 07:53:35;;;;;;;1.55;1.15;;;21.70;61.10;;;;;;6240196;28;20111;-48
2023/10/01 07:56:48;;;;;;;1.67;1.23;;;22.20;61.40;;;;;;6241284;28;20537;-47
2023/10/01 07:59:53;;;;;;;2.10;1.40;;;22.20;61.20;;;;;;6240716;28;20045;-47
2023/10/01 08:06:16;;;;;;;1.88;1.00;;;22.20;61.40;;;;;;6225264;28;20041;-48
2023/10/01 08:09:18;;;;;;;2.03;1.40;;;22.10;61.50;;;;;;6240150;28;20045;-48
2023/10/01 08:12:28;;;;;;;1.27;0.90;;;22.10;61.50;;;;;;6239896;28;20045;-49
2023/10/01 08:15:38;;;;;;;1.90;1.10;;;22.20;61.60;;;;;;6223302;28;20065;-49
2023/10/01 08:18:42;;;;;;;1.90;1.25;;;22.40;61.80;;;;;;6240406;28;20485;-45
2023/10/01 08:21:48;;;;;;;1.88;1.30;;;21.90;61.60;;;;;;6240558;28;20049;-50
2023/10/01 08:24:52;;;;;;;1.98;1.35;;;22.30;61.80;;;;;;6239188;28;20054;-49
2023/10/01 08:28:26;;;;;;;2.47;1.40;;;22.00;61.30;;;;;;6239703;28;20130;-44
2023/10/01 08:35:01;;;;;;;2.00;1.20;;;22.20;61.70;;;;;;6223150;28;20099;-48
2023/10/01 08:38:15;;;;;;;1.80;1.20;;;22.40;61.80;;;;;;6239987;28;20052;-46
2023/10/01 08:41:32;;;;;;;1.38;0.93;;;22.30;61.90;;;;;;6221745;28;20045;-48
2023/10/01 08:44:44;;;;;;;1.70;1.05;;;22.10;61.60;;;;;;6240167;28;20103;-48
2023/10/01 08:47:47;;;;;;;1.33;0.95;;;22.30;61.70;;;;;;6223475;28;20107;-45
2023/10/01 08:50:53;;;;;;;2.10;1.10;;;22.40;62.00;;;;;;6239550;28;20442;-48
2023/10/01 08:54:14;;;;;;;1.80;1.20;;;22.50;60.40;;;;;;6240074;28;20454;-49
2023/10/01 08:57:18;;;;;;;;;;;22.40;61.80;;;;;;6239737;28;20545;-48
2023/10/01 09:00:23;;;;;;;2.25;1.58;;;22.60;62.30;;;;;;6239195;28;19964;-49
2023/10/01 09:03:28;;;;;;;1.77;1.13;;;22.40;62.00;;;;;;6239083;28;20526;-45
2023/10/01 09:06:58;;;;;;;2.40;1.30;;;22.20;61.80;;;;;;6239556;28;20053;-45
2023/10/01 09:10:08;;;;;;;1.35;0.93;;;22.40;62.10;;;;;;6222753;28;20431;-44
2023/10/01 09:13:20;;;;;;;2.15;1.50;;;22.50;62.20;;;;;;6238911;28;20061;-47
2023/10/01 09:16:30;;;;;;;2.58;1.40;;;22.40;62.30;;;;;;6238964;28;20079;-45
2023/10/01 09:19:50;;;;;;;1.90;1.15;;;22.60;62.40;;;;;;6238386;28;20050;-46
2023/10/01 09:23:00;;;;;;;1.58;1.08;;;22.60;62.40;;;;;;6239466;28;20048;-48
2023/10/01 09:26:02;;;;;;;2.50;1.30;;;22.50;62.50;;;;;;6238720;28;20095;-46
2023/10/01 09:29:13;;;;;;;2.13;1.55;;;22.60;62.60;;;;;;6238731;28;20041;-46
2023/10/01 09:32:17;;;;;;;1.83;1.10;;;22.60;62.70;;;;;;6238637;28;20570;-45
2023/10/01 09:35:30;;;;;;;1.85;1.50;;;22.60;62.80;;;;;;6238853;28;20411;-45
2023/10/01 09:38:31;;;;;;;2.30;1.55;;;22.50;63.00;;;;;;6238577;28;20048;-48
2023/10/01 09:41:40;;;;;;;2.03;1.13;;;22.60;63.20;;;;;;6238509;28;20053;-48
2023/10/01 09:44:49;;;;;;;2.33;1.30;;;22.90;63.40;;;;;;6238215;28;20079;-49
2023/10/01 09:48:01;;;;;;;1.70;1.10;;;22.50;63.30;;;;;;6238091;28;20160;-44
2023/10/01 09:51:08;;;;;;;2.45;1.42;;;22.60;63.40;;;;;;6238306;28;20107;-48
2023/10/01 09:54:28;;;;;;;1.90;1.27;;;22.60;63.50;;;;;;6221684;28;20041;-49
2023/10/01 09:57:34;;;;;;;2.13;1.25;;;22.60;63.80;;;;;;6238420;28;20050;-49
2023/10/01 10:00:40;;;;;;;2.03;1.20;;;22.60;63.70;;;;;;6221121;28;20060;-49
2023/10/01 10:03:54;;;;;;;2.10;1.30;;;22.70;63.90;;;;;;6238013;28;20041;-45
2023/10/01 10:07:00;;;;;;;1.98;1.33;;;22.80;62.60;;;;;;6238361;28;20502;-47
2023/10/01 10:10:04;;;;;;;1.98;1.45;;;22.70;64.00;;;;;;6237687;28;20049;-45
2023/10/01 10:13:33;;;;;;;2.28;1.33;;;22.70;64.00;;;;;;6237995;28;20045;-50
2023/10/01 10:16:36;;;;;;;2.65;1.50;;;22.70;63.90;;;;;;6237881;28;20049;-49
2023/10/01 10:19:58;;;;;;;2.35;1.35;;;22.70;64.00;;;;;;6238273;28;20060;-47
2023/10/01 10:23:13;;;;;;;2.28;1.30;;;22.80;64.20;;;;;;6237617;28;20140;-47
2023/10/01 10:26:56;;;;;;;2.55;1.52;;;22.70;64.10;;;;;;6237921;28;20049;-47
2023/10/01 10:30:14;;;;;;;1.88;1.20;;;22.80;64.20;;;;;;6226065;28;20052;-50
2023/10/01 10:33:29;;;;;;;1.92;1.10;;;22.80;64.10;;;;;;6234490;28;20104;-48
2023/10/01 10:36:36;;;;;;;1.77;1.20;;;22.80;64.10;;;;;;6234298;28;20076;-47
2023/10/01 10:40:04;;;;;;;1.95;1.30;;;22.90;64.20;;;;;;6235037;28;20059;-50
2023/10/01 10:43:18;;;;;;;2.28;1.50;;;22.80;64.10;;;;;;6234137;28;20045;-50
2023/10/01 10:46:22;;;;;;;2.00;1.25;;;23.30;65.20;;;;;;6233606;28;20045;-52
2023/10/01 10:49:51;;;;;;;1.30;0.90;;;23.00;64.50;;;;;;6234547;28;20045;-49
2023/10/01 10:52:57;;;;;;;1.65;1.10;;;23.00;64.50;;;;;;6224610;28;20049;-49
2023/10/01 10:56:00;;;;;;;2.05;1.15;;;22.80;64.50;;;;;;6238292;28;20049;-48
2023/10/01 10:59:03;;;;;;;2.00;1.20;;;23.00;64.50;;;;;;6238551;28;20422;-48
2023/10/01 11:02:07;;;;;;;2.30;1.45;;;23.00;64.70;;;;;;6238410;28;20053;-51
2023/10/01 11:05:09;;;;;;;2.17;1.40;;;23.10;64.90;;;;;;6238477;28;20052;-51
2023/10/01 11:08:11;;;;;;;2.53;1.35;;;23.00;65.00;;;;;;6238170;28;20050;-49
2023/10/01 11:11:18;;;;;;;2.58;1.27;;;23.00;65.30;;;;;;6237961;28;20065;-47
2023/10/01 11:14:37;;;;;;;;;;;22.90;65.40;;;;;;6238756;28;20052;-48
2023/10/01 11:17:42;;;;;;;1.42;1.08;;;23.50;65.90;;;;;;6237707;28;19925;-48
2023/10/01 11:20:45;;;;;;;1.48;0.98;;;23.10;65.30;;;;;;6237748;28;20061;-50
2023/10/01 11:23:53;;;;;;;2.58;1.55;;;22.70;65.40;;;;;;6238163;28;20510;-46
2023/10/01 11:27:15;;;;;;;1.80;1.17;;;23.10;65.80;;;;;;6220177;28;20095;-46
2023/10/01 11:30:17;;;;;;;2.40;1.58;;;23.30;66.20;;;;;;6237646;28;20415;-51
2023/10/01 11:33:30;;;;;;;2.35;1.35;;;22.90;66.10;;;;;;6237479;28;20045;-47
2023/10/01 11:36:35;;;;;;;2.45;1.10;;;23.20;66.40;;;;;;6237046;28;20164;-52
2023/10/01 11:39:38;;;;;;;2.58;1.40;;;23.20;66.40;;;;;;6237426;28;20038;-47
2023/10/01 11:42:39;;;;;;;2.63;1.50;;;23.10;66.50;;;;;;6237799;28;20384;-48
2023/10/01 11:45:48;;;;;;;2.10;1.25;;;23.20;66.70;;;;;;6237069;28;20057;-45
2023/10/01 11:48:57;;;;;;;2.70;1.38;;;23.20;66.80;;;;;;6237586;28;20056;-52
2023/10/01 11:52:16;;;;;;;2.15;1.20;;;23.30;66.90;;;;;;6237374;28;20187;-45
2023/10/01 11:55:19;;;;;;;2.55;1.40;;;23.20;67.60;;;;;;6237114;28;20379;-45
2023/10/01 11:58:26;;;;;;;2.40;1.35;;;23.10;67.00;;;;;;6236928;28;20150;-44
2023/10/01 12:01:39;;;;;;;2.42;1.48;;;23.30;67.20;;;;;;6235921;28;20439;-47
2023/10/01 12:04:44;;;;;;;2.50;1.27;;;23.50;66.70;;;;;;6237156;28;20103;-46
2023/10/01 12:07:47;;;;;;;2.10;1.40;;;23.50;67.40;;;;;;6219733;28;20056;-50
2023/10/01 12:10:51;;;;;;;2.72;1.20;;;23.40;67.50;;;;;;6236721;28;20183;-48
2023/10/01 12:14:06;;;;;;;2.20;1.35;;;23.40;66.80;;;;;;6236650;28;20049;-47
2023/10/01 12:17:10;;;;;;;1.88;1.42;;;23.50;67.50;;;;;;6236761;28;20176;-46
2023/10/01 12:20:22;;;;;;;1.95;1.13;;;23.50;67.60;;;;;;6244865;28;20138;-50
2023/10/01 12:23:29;;;;;;;1.98;1.10;;;23.30;67.40;;;;;;6261478;28;20179;-48
2023/10/01 12:26:36;;;;;;;2.80;1.10;;;23.60;67.60;;;;;;6260839;28;20550;-46
2023/10/01 12:29:42;;;;;;;2.03;1.13;;;23.50;67.40;;;;;;6261150;28;20593;-49
2023/10/01 12:32:48;;;;;;;1.98;1.00;;;23.20;67.40;;;;;;6260966;28;20542;-51
2023/10/01 12:35:49;;;;;;;1.63;1.00;;;23.50;67.60;;;;;;6261408;28;20057;-47
2023/10/01 12:39:03;;;;;;;1.75;1.17;;;23.60;67.80;;;;;;6260429;28;20056;-49
2023/10/01 12:42:05;;;;;;;2.33;1.20;;;23.70;67.80;;;;;;6261369;28;20055;-48
2023/10/01 12:45:19;;;;;;;2.05;1.20;;;23.50;67.80;;;;;;6261174;28;20076;-46
2023/10/01 12:48:21;;;;;;;1.92;1.00;;;23.80;67.70;;;;;;6260991;28;20049;-45
2023/10/01 12:51:29;;;;;;;1.80;0.95;;;23.60;67.70;;;;;;6261168;28;20045;-47
2023/10/01 12:54:36;;;;;;;;;;;23.70;67.80;;;;;;6261220;28;20256;-48
2023/10/01 12:57:39;;;;;;;1.83;1.00;;;23.80;67.90;;;;;;6261024;28;19932;-44
2023/10/01 13:00:44;;;;;;;1.65;0.85;;;23.60;67.60;;;;;;6260994;28;20045;-45
2023/10/01 13:03:47;;;;;;;1.60;1.10;;;23.80;67.80;;;;;;6260318;28;20502;-50
2023/10/01 13:06:50;;;;;;;1.92;1.10;;;23.70;67.70;;;;;;6260470;28;20056;-46
2023/10/01 13:09:57;;;;;;;1.50;1.00;;;23.50;67.50;;;;;;6260083;28;20336;-50
2023/10/01 13:13:01;;;;;;;1.55;1.00;;;23.70;67.70;;;;;;6259426;28;20075;-48
2023/10/01 13:16:03;;;;;;;1.85;1.08;;;23.80;67.80;;;;;;6260181;28;20048;-49
2023/10/01 13:19:17;;;;;;;1.35;0.82;;;23.80;67.90;;;;;;6258075;28;20049;-49
2023/10/01 13:22:22;;;;;;;1.40;0.80;;;23.90;68.10;;;;;;6257180;28;20053;-52
2023/10/01 13:25:24;;;;;;;1.98;1.08;;;23.70;68.00;;;;;;6258080;28;20044;-48
2023/10/01 13:28:43;;;;;;;1.70;0.98;;;23.70;68.20;;;;;;6258164;28;20434;-48
2023/10/01 13:31:52;;;;;;;1.23;1.02;;;23.80;68.40;;;;;;6258773;28;20049;-50
2023/10/01 13:34:58;;;;;;;1.00;0.70;;;23.90;68.40;;;;;;6259505;28;20068;-50
2023/10/01 14:10:16;;;;;;;1.13;0.90;;;24.00;68.10;;;;;;6243208;28;20619;-51
2023/10/01 14:13:29;;;;;;;1.58;1.00;;;24.20;68.30;;;;;;6259003;28;20087;-47
2023/10/01 14:16:31;;;;;;;0.93;0.50;;;24.10;68.30;;;;;;6258280;28;20044;-51
2023/10/01 14:19:35;;;;;;;1.48;0.90;;;24.10;68.30;;;;;;6259224;28;20060;-51
2023/10/01 14:22:49;;;;;;;1.75;0.90;;;24.10;68.30;;;;;;6258031;28;20049;-47
2023/10/01 14:25:52;;;;;;;2.03;1.00;;;24.20;68.40;;;;;;6258848;28;20049;-49
2023/10/01 14:28:56;;;;;;;1.38;1.00;;;24.00;68.20;;;;;;6258838;28;20098;-44
2023/10/01 14:32:09;;;;;;;1.10;0.80;;;24.20;68.30;;;;;;6257609;28;20053;-50
2023/10/01 14:35:14;;;;;;;1.30;0.70;;;24.50;68.50;;;;;;6257182;28;20098;-48
2023/10/01 14:38:21;;;;;;;1.08;0.70;;;24.10;68.30;;;;;;6257290;28;20044;-50
2023/10/01 14:41:22;;;;;;;2.10;1.02;;;24.30;68.00;;;;;;6257569;28;20475;-49
2023/10/01 14:44:24;;;;;;;1.50;0.70;;;24.20;68.30;;;;;;6258719;28;20048;-51
2023/10/01 14:47:26;;;;;;;1.02;0.63;;;24.20;68.30;;;;;;6259022;28;20049;-48
2023/10/01 14:50:28;;;;;;;1.10;0.80;;;24.20;68.30;;;;;;6256879;28;20176;-51
2023/10/01 14:53:36;;;;;;;0.95;0.50;;;24.30;68.30;;;;;;6258976;28;20049;-47
2023/10/01 14:56:37;;;;;;;1.63;0.73;;;24.30;68.20;;;;;;6259207;28;20568;-50
2023/10/01 14:59:43;;;;;;;1.05;0.80;;;24.00;68.10;;;;;;6256749;28;20131;-49
2023/10/01 15:02:45;;;;;;;1.05;0.68;;;24.30;68.30;;;;;;6255643;28;20426;-49
2023/10/01 15:05:47;;;;;;;0.85;0.43;;;24.30;68.30;;;;;;6255442;28;20045;-47
2023/10/01 15:08:58;;;;;;;1.42;0.80;;;24.50;68.40;;;;;;6258067;28;20156;-51
2023/10/01 15:12:04;;;;;;;1.08;0.73;;;24.40;68.30;;;;;;6258427;28;20156;-48
2023/10/01 15:15:20;;;;;;;1.00;0.60;;;24.20;68.10;;;;;;6258249;28;20057;-46
2023/10/01 15:18:43;;;;;;;1.42;0.90;;;24.40;68.30;;;;;;6243393;28;20056;-49
2023/10/01 15:21:48;;;;;;;0.90;0.52;;;24.30;68.30;;;;;;6258461;28;20089;-48
2023/10/01 15:24:51;;;;;;;0.95;0.60;;;24.60;68.60;;;;;;6258105;28;20393;-45
2023/10/01 15:27:55;;;;;;;1.23;0.73;;;24.40;68.50;;;;;;6258059;28;20533;-49
2023/10/01 15:31:01;;;;;;;1.40;0.80;;;24.20;68.30;;;;;;6258180;28;20064;-49
2023/10/01 15:34:05;;;;;;;1.50;0.70;;;24.50;68.50;;;;;;6258552;28;20414;-46
2023/10/01 15:37:11;;;;;;;1.13;0.60;;;24.40;68.40;;;;;;6262240;28;20640;-48
2023/10/01 15:40:23;;;;;;;0.90;0.63;;;24.50;68.50;;;;;;6262582;28;20041;-47
2023/10/01 15:43:32;;;;;;;0.60;0.40;;;24.70;68.50;;;;;;6261707;28;20053;-49
2023/10/01 15:46:40;;;;;;;0.68;0.38;;;24.30;68.30;;;;;;6262200;28;20136;-50
2023/10/01 15:49:41;;;;;;;0.95;0.65;;;24.50;68.40;;;;;;6262349;28;20045;-48
2023/10/01 15:52:48;;;;;;;1.00;0.52;;;24.50;68.30;;;;;;6261632;28;20048;-45
2023/10/01 15:56:00;;;;;;;1.13;0.60;;;24.60;68.30;;;;;;6243056;28;20048;-48
2023/10/01 15:59:10;;;;;;;1.20;0.50;;;24.50;68.30;;;;;;6260729;28;20137;-47
2023/10/01 16:02:18;;;;;;;1.15;0.40;;;24.50;68.30;;;;;;6260632;28;20048;-49
2023/10/01 16:05:20;;;;;;;1.17;0.68;;;24.50;68.30;;;;;;6260866;28;20072;-45
2023/10/01 16:08:25;;;;;;;0.93;0.60;;;24.60;68.30;;;;;;6261474;28;20502;-46
2023/10/01 16:11:33;;;;;;;1.25;0.65;;;24.70;68.40;;;;;;6244256;28;20076;-50
2023/10/01 16:14:39;;;;;;;0.93;0.50;;;24.50;68.20;;;;;;6261485;28;20049;-51
2023/10/01 16:18:08;;;;;;;1.05;0.65;;;24.70;68.40;;;;;;6246316;28;20283;-46
2023/10/01 16:21:16;;;;;;;0.65;0.50;;;24.60;68.40;;;;;;6261692;28;20635;-45
2023/10/01 16:24:18;;;;;;;0.82;0.60;;;24.70;68.50;;;;;;6244826;28;20053;-48
2023/10/01 16:27:25;;;;;;;1.08;0.95;;;24.60;68.50;;;;;;6261154;28;20069;-48
2023/10/01 16:30:29;;;;;;;1.02;0.60;;;24.60;68.50;;;;;;6261253;28;20055;-47
2023/10/01 16:33:40;;;;;;;1.05;0.52;;;24.70;68.50;;;;;;6259869;28;20049;-47
2023/10/01 16:36:44;;;;;;;0.95;0.50;;;24.70;68.90;;;;;;6261228;28;20393;-50
2023/10/01 16:39:48;;;;;;;0.88;0.50;;;24.90;68.50;;;;;;6259098;28;20071;-49
2023/10/01 16:42:53;;;;;;;0.95;0.65;;;24.90;68.60;;;;;;6260691;28;20095;-49
2023/10/01 16:45:55;;;;;;;0.80;0.50;;;24.60;68.30;;;;;;6260682;28;20530;-48
2023/10/01 16:49:03;;;;;;;0.63;0.40;;;24.90;68.60;;;;;;6260732;28;20041;-50
2023/10/01 16:52:05;;;;;;;1.20;0.60;;;24.80;68.50;;;;;;6260962;28;20041;-46
2023/10/01 16:55:07;;;;;;;0.85;0.70;;;24.50;68.40;;;;;;6260086;28;20041;-46
2023/10/01 16:58:11;;;;;;;0.80;0.60;;;24.50;68.40;;;;;;6258888;28;20098;-48
2023/10/01 17:01:25;;;;;;;0.98;0.70;;;24.70;68.60;;;;;;6260834;28;20056;-49
2023/10/01 17:04:27;;;;;;;0.80;0.50;;;25.00;68.60;;;;;;6242750;28;20045;-49
2023/10/01 17:07:30;;;;;;;1.10;0.60;;;24.80;68.70;;;;;;6260768;28;20045;-48
2023/10/01 17:10:31;;;;;;;0.80;0.52;;;24.80;68.70;;;;;;6260709;28;20143;-45
2023/10/01 17:13:35;;;;;;;1.10;0.60;;;24.90;68.90;;;;;;6259304;28;20033;-47
2023/10/01 17:16:37;;;;;;;0.98;0.75;;;24.80;68.90;;;;;;6242458;28;20053;-48
2023/10/01 17:19:39;;;;;;;1.10;0.70;;;24.90;69.00;;;;;;6261023;28;20132;-49
2023/10/01 17:22:45;;;;;;;1.00;0.50;;;24.90;69.10;;;;;;6260458;28;20460;-46